Terminal Aerodrome Forecast
Issued by NWS

Home | Current Version | Previous Version | Graphics & Text | Print | Product List | Glossary On
Versions: 1 2 3 4 5 6 7 8 9 10 11 12 13 14 15 16
434
FTUS43 KICT 141523 AAA
TAFCNU
TAF AMD
KCNU 141523Z 1415/1512 19018G28KT P6SM SCT150
     FM150000 20015G25KT P6SM VCTS SCT050CB BKN100
      TEMPO 1500/1502 VRB20G40KT 2SM +TSRA BKN050CB
     FM150200 31018G28KT P6SM VCTS OVC060CB
     FM150400 33018G25KT P6SM OVC080=

USA.gov is the U.S. government's official web portal to all federal, state and local government web resources and services.